sensor_id;sensor_type;location;lat;lon;timestamp;P1;durP1;ratioP1;P2;durP2;ratioP2
29906;SDS011;16776;50.958;10.994;2022-11-21T00:01:38;7.97;;;4.85;;
29906;SDS011;16776;50.958;10.994;2022-11-21T00:04:04;10.85;;;6.40;;
29906;SDS011;16776;50.958;10.994;2022-11-21T00:06:31;12.57;;;6.10;;
29906;SDS011;16776;50.958;10.994;2022-11-21T00:08:59;13.10;;;7.05;;
29906;SDS011;16776;50.958;10.994;2022-11-21T00:11:26;11.63;;;6.63;;
29906;SDS011;16776;50.958;10.994;2022-11-21T00:13:52;14.25;;;7.30;;
29906;SDS011;16776;50.958;10.994;2022-11-21T00:16:19;14.10;;;7.13;;
29906;SDS011;16776;50.958;10.994;2022-11-21T00:18:45;12.63;;;7.00;;
29906;SDS011;16776;50.958;10.994;2022-11-21T00:21:12;11.43;;;6.13;;
29906;SDS011;16776;50.958;10.994;2022-11-21T00:23:40;10.05;;;5.72;;
29906;SDS011;16776;50.958;10.994;2022-11-21T00:26:09;9.88;;;5.60;;
29906;SDS011;16776;50.958;10.994;2022-11-21T00:28:37;9.05;;;5.63;;
29906;SDS011;16776;50.958;10.994;2022-11-21T00:31:04;9.35;;;5.13;;
29906;SDS011;16776;50.958;10.994;2022-11-21T00:33:32;8.82;;;5.30;;
29906;SDS011;16776;50.958;10.994;2022-11-21T00:36:06;9.57;;;5.07;;
29906;SDS011;16776;50.958;10.994;2022-11-21T00:38:33;8.95;;;4.63;;
29906;SDS011;16776;50.958;10.994;2022-11-21T00:41:02;8.40;;;4.45;;
29906;SDS011;16776;50.958;10.994;2022-11-21T00:43:30;7.28;;;3.50;;
29906;SDS011;16776;50.958;10.994;2022-11-21T00:45:59;7.80;;;4.32;;
29906;SDS011;16776;50.958;10.994;2022-11-21T00:48:26;7.88;;;4.40;;
29906;SDS011;16776;50.958;10.994;2022-11-21T00:50:54;7.15;;;4.25;;
29906;SDS011;16776;50.958;10.994;2022-11-21T00:53:20;7.38;;;3.97;;
29906;SDS011;16776;50.958;10.994;2022-11-21T00:55:47;7.38;;;3.85;;
29906;SDS011;16776;50.958;10.994;2022-11-21T00:58:14;7.07;;;4.00;;
29906;SDS011;16776;50.958;10.994;2022-11-21T01:00:45;6.70;;;4.13;;
29906;SDS011;16776;50.958;10.994;2022-11-21T01:03:11;6.45;;;3.83;;
29906;SDS011;16776;50.958;10.994;2022-11-21T01:05:38;6.45;;;3.55;;
29906;SDS011;16776;50.958;10.994;2022-11-21T01:08:05;4.85;;;3.47;;
29906;SDS011;16776;50.958;10.994;2022-11-21T01:10:32;7.15;;;3.92;;
29906;SDS011;16776;50.958;10.994;2022-11-21T01:12:59;5.43;;;3.10;;
29906;SDS011;16776;50.958;10.994;2022-11-21T01:15:26;5.60;;;2.95;;
29906;SDS011;16776;50.958;10.994;2022-11-21T01:17:53;5.55;;;3.00;;
29906;SDS011;16776;50.958;10.994;2022-11-21T01:20:20;4.55;;;3.00;;
29906;SDS011;16776;50.958;10.994;2022-11-21T01:22:47;5.10;;;3.75;;
29906;SDS011;16776;50.958;10.994;2022-11-21T01:25:13;7.75;;;4.47;;
29906;SDS011;16776;50.958;10.994;2022-11-21T01:27:40;5.55;;;3.88;;
29906;SDS011;16776;50.958;10.994;2022-11-21T01:30:07;7.90;;;4.22;;
29906;SDS011;16776;50.958;10.994;2022-11-21T01:32:35;5.68;;;3.35;;
29906;SDS011;16776;50.958;10.994;2022-11-21T01:35:04;4.97;;;2.83;;
29906;SDS011;16776;50.958;10.994;2022-11-21T01:37:31;4.32;;;2.90;;
29906;SDS011;16776;50.958;10.994;2022-11-21T01:39:57;3.58;;;2.35;;
29906;SDS011;16776;50.958;10.994;2022-11-21T01:42:24;3.65;;;1.95;;
29906;SDS011;16776;50.958;10.994;2022-11-21T01:44:51;3.38;;;2.40;;
29906;SDS011;16776;50.958;10.994;2022-11-21T01:47:18;4.65;;;3.35;;
29906;SDS011;16776;50.958;10.994;2022-11-21T01:49:46;5.82;;;3.63;;
29906;SDS011;16776;50.958;10.994;2022-11-21T01:52:16;8.27;;;4.57;;
29906;SDS011;16776;50.958;10.994;2022-11-21T01:54:49;9.07;;;4.93;;
29906;SDS011;16776;50.958;10.994;2022-11-21T01:57:21;5.40;;;3.42;;
29906;SDS011;16776;50.958;10.994;2022-11-21T02:02:22;4.38;;;2.90;;
29906;SDS011;16776;50.958;10.994;2022-11-21T02:04:53;5.47;;;3.08;;
29906;SDS011;16776;50.958;10.994;2022-11-21T02:07:22;4.80;;;2.83;;
29906;SDS011;16776;50.958;10.994;2022-11-21T02:09:51;5.60;;;3.17;;
29906;SDS011;16776;50.958;10.994;2022-11-21T02:12:22;6.85;;;3.90;;
29906;SDS011;16776;50.958;10.994;2022-11-21T02:14:54;6.20;;;3.53;;
29906;SDS011;16776;50.958;10.994;2022-11-21T02:17:21;8.13;;;3.72;;
29906;SDS011;16776;50.958;10.994;2022-11-21T02:19:51;5.95;;;3.72;;
29906;SDS011;16776;50.958;10.994;2022-11-21T02:22:23;7.13;;;3.80;;
29906;SDS011;16776;50.958;10.994;2022-11-21T02:25:00;6.43;;;3.38;;
29906;SDS011;16776;50.958;10.994;2022-11-21T02:27:29;6.85;;;4.10;;
29906;SDS011;16776;50.958;10.994;2022-11-21T02:29:56;5.32;;;3.45;;
29906;SDS011;16776;50.958;10.994;2022-11-21T02:32:23;6.50;;;3.58;;
29906;SDS011;16776;50.958;10.994;2022-11-21T02:34:56;6.00;;;3.05;;
29906;SDS011;16776;50.958;10.994;2022-11-21T02:37:23;6.30;;;3.45;;
29906;SDS011;16776;50.958;10.994;2022-11-21T02:39:49;6.18;;;3.22;;
29906;SDS011;16776;50.958;10.994;2022-11-21T02:42:20;6.03;;;3.25;;
29906;SDS011;16776;50.958;10.994;2022-11-21T02:44:52;6.43;;;3.47;;
29906;SDS011;16776;50.958;10.994;2022-11-21T02:47:22;5.95;;;3.20;;
29906;SDS011;16776;50.958;10.994;2022-11-21T02:49:52;5.35;;;3.33;;
29906;SDS011;16776;50.958;10.994;2022-11-21T02:52:25;5.07;;;2.97;;
29906;SDS011;16776;50.958;10.994;2022-11-21T02:54:52;4.68;;;2.95;;
29906;SDS011;16776;50.958;10.994;2022-11-21T02:57:20;3.35;;;2.60;;
29906;SDS011;16776;50.958;10.994;2022-11-21T02:59:46;4.53;;;2.80;;
29906;SDS011;16776;50.958;10.994;2022-11-21T03:02:13;4.38;;;2.67;;
29906;SDS011;16776;50.958;10.994;2022-11-21T03:04:39;4.22;;;2.55;;
29906;SDS011;16776;50.958;10.994;2022-11-21T03:07:06;4.28;;;2.80;;
29906;SDS011;16776;50.958;10.994;2022-11-21T03:09:32;3.67;;;2.60;;
29906;SDS011;16776;50.958;10.994;2022-11-21T03:12:03;4.47;;;2.67;;
29906;SDS011;16776;50.958;10.994;2022-11-21T03:14:32;3.65;;;3.05;;
29906;SDS011;16776;50.958;10.994;2022-11-21T03:16:59;3.67;;;2.65;;
29906;SDS011;16776;50.958;10.994;2022-11-21T03:19:25;3.92;;;2.60;;
29906;SDS011;16776;50.958;10.994;2022-11-21T03:21:52;5.88;;;2.92;;
29906;SDS011;16776;50.958;10.994;2022-11-21T03:24:18;3.17;;;2.35;;
29906;SDS011;16776;50.958;10.994;2022-11-21T03:26:45;2.78;;;2.30;;
29906;SDS011;16776;50.958;10.994;2022-11-21T03:29:12;3.63;;;2.30;;
29906;SDS011;16776;50.958;10.994;2022-11-21T03:31:40;2.92;;;2.45;;
29906;SDS011;16776;50.958;10.994;2022-11-21T03:34:06;3.95;;;2.38;;
29906;SDS011;16776;50.958;10.994;2022-11-21T03:36:33;2.88;;;2.33;;
29906;SDS011;16776;50.958;10.994;2022-11-21T03:39:00;3.10;;;2.20;;
29906;SDS011;16776;50.958;10.994;2022-11-21T03:41:27;2.25;;;1.70;;
29906;SDS011;16776;50.958;10.994;2022-11-21T03:43:56;4.60;;;2.60;;
29906;SDS011;16776;50.958;10.994;2022-11-21T03:46:26;2.88;;;2.20;;
29906;SDS011;16776;50.958;10.994;2022-11-21T03:48:55;4.07;;;2.25;;
29906;SDS011;16776;50.958;10.994;2022-11-21T03:51:22;3.05;;;1.85;;
29906;SDS011;16776;50.958;10.994;2022-11-21T03:53:49;2.58;;;1.92;;
29906;SDS011;16776;50.958;10.994;2022-11-21T03:56:15;2.42;;;1.75;;
29906;SDS011;16776;50.958;10.994;2022-11-21T03:58:42;3.50;;;2.25;;
29906;SDS011;16776;50.958;10.994;2022-11-21T04:01:09;3.80;;;2.10;;
29906;SDS011;16776;50.958;10.994;2022-11-21T04:03:37;3.00;;;1.75;;
29906;SDS011;16776;50.958;10.994;2022-11-21T04:06:05;3.53;;;2.10;;
29906;SDS011;16776;50.958;10.994;2022-11-21T04:08:31;3.05;;;2.13;;
29906;SDS011;16776;50.958;10.994;2022-11-21T04:10:58;3.30;;;2.03;;
29906;SDS011;16776;50.958;10.994;2022-11-21T04:13:25;3.65;;;1.75;;
29906;SDS011;16776;50.958;10.994;2022-11-21T04:15:51;3.08;;;1.65;;
29906;SDS011;16776;50.958;10.994;2022-11-21T04:18:18;3.55;;;2.10;;
29906;SDS011;16776;50.958;10.994;2022-11-21T04:20:44;2.80;;;1.70;;
29906;SDS011;16776;50.958;10.994;2022-11-21T04:23:12;2.38;;;1.63;;
29906;SDS011;16776;50.958;10.994;2022-11-21T04:25:39;2.10;;;1.88;;
29906;SDS011;16776;50.958;10.994;2022-11-21T04:28:06;2.25;;;1.85;;
29906;SDS011;16776;50.958;10.994;2022-11-21T04:30:33;3.45;;;1.73;;
29906;SDS011;16776;50.958;10.994;2022-11-21T04:32:59;2.60;;;1.77;;
29906;SDS011;16776;50.958;10.994;2022-11-21T04:35:26;2.88;;;1.48;;
29906;SDS011;16776;50.958;10.994;2022-11-21T04:37:52;2.45;;;1.67;;
29906;SDS011;16776;50.958;10.994;2022-11-21T04:40:20;2.08;;;1.55;;
29906;SDS011;16776;50.958;10.994;2022-11-21T04:42:47;2.58;;;1.42;;
29906;SDS011;16776;50.958;10.994;2022-11-21T04:45:14;2.25;;;1.50;;
29906;SDS011;16776;50.958;10.994;2022-11-21T04:47:42;2.40;;;1.75;;
29906;SDS011;16776;50.958;10.994;2022-11-21T04:50:14;1.85;;;1.50;;
29906;SDS011;16776;50.958;10.994;2022-11-21T04:52:42;2.97;;;2.10;;
29906;SDS011;16776;50.958;10.994;2022-11-21T04:57:42;1.77;;;1.10;;
29906;SDS011;16776;50.958;10.994;2022-11-21T05:00:10;2.30;;;1.48;;
29906;SDS011;16776;50.958;10.994;2022-11-21T05:02:37;1.48;;;1.33;;
29906;SDS011;16776;50.958;10.994;2022-11-21T05:05:04;1.83;;;1.33;;
29906;SDS011;16776;50.958;10.994;2022-11-21T05:07:31;1.42;;;1.13;;
29906;SDS011;16776;50.958;10.994;2022-11-21T05:09:57;2.40;;;1.88;;
29906;SDS011;16776;50.958;10.994;2022-11-21T05:12:24;2.53;;;1.92;;
29906;SDS011;16776;50.958;10.994;2022-11-21T05:15:24;2.72;;;1.67;;
29906;SDS011;16776;50.958;10.994;2022-11-21T05:17:50;3.20;;;1.48;;
29906;SDS011;16776;50.958;10.994;2022-11-21T05:20:17;2.22;;;1.75;;
29906;SDS011;16776;50.958;10.994;2022-11-21T05:22:44;1.52;;;1.35;;
29906;SDS011;16776;50.958;10.994;2022-11-21T05:25:16;2.67;;;1.88;;
29906;SDS011;16776;50.958;10.994;2022-11-21T05:27:42;4.28;;;1.27;;
29906;SDS011;16776;50.958;10.994;2022-11-21T05:30:10;2.40;;;1.48;;
29906;SDS011;16776;50.958;10.994;2022-11-21T05:32:38;4.45;;;1.90;;
29906;SDS011;16776;50.958;10.994;2022-11-21T05:35:05;2.47;;;1.73;;
29906;SDS011;16776;50.958;10.994;2022-11-21T05:37:32;2.40;;;1.63;;
29906;SDS011;16776;50.958;10.994;2022-11-21T05:39:59;3.15;;;2.08;;
29906;SDS011;16776;50.958;10.994;2022-11-21T05:42:25;2.53;;;1.88;;
29906;SDS011;16776;50.958;10.994;2022-11-21T05:45:06;3.05;;;2.03;;
29906;SDS011;16776;50.958;10.994;2022-11-21T05:47:34;2.60;;;1.85;;
29906;SDS011;16776;50.958;10.994;2022-11-21T05:50:02;1.90;;;1.58;;
29906;SDS011;16776;50.958;10.994;2022-11-21T05:52:29;2.33;;;1.55;;
29906;SDS011;16776;50.958;10.994;2022-11-21T05:54:55;2.58;;;1.90;;
29906;SDS011;16776;50.958;10.994;2022-11-21T05:57:22;2.08;;;1.73;;
29906;SDS011;16776;50.958;10.994;2022-11-21T05:59:49;1.92;;;1.40;;
29906;SDS011;16776;50.958;10.994;2022-11-21T06:02:15;2.20;;;1.67;;
29906;SDS011;16776;50.958;10.994;2022-11-21T06:04:59;2.83;;;2.08;;
29906;SDS011;16776;50.958;10.994;2022-11-21T06:07:27;3.08;;;2.13;;
29906;SDS011;16776;50.958;10.994;2022-11-21T06:09:54;1.67;;;1.58;;
29906;SDS011;16776;50.958;10.994;2022-11-21T06:12:20;3.03;;;2.00;;
29906;SDS011;16776;50.958;10.994;2022-11-21T06:14:47;2.22;;;1.77;;
29906;SDS011;16776;50.958;10.994;2022-11-21T06:17:13;2.00;;;1.80;;
29906;SDS011;16776;50.958;10.994;2022-11-21T06:19:40;3.00;;;1.92;;
29906;SDS011;16776;50.958;10.994;2022-11-21T06:22:06;2.45;;;1.90;;
29906;SDS011;16776;50.958;10.994;2022-11-21T06:24:34;2.80;;;1.88;;
29906;SDS011;16776;50.958;10.994;2022-11-21T06:27:01;3.95;;;1.85;;
29906;SDS011;16776;50.958;10.994;2022-11-21T06:29:27;2.53;;;1.70;;
29906;SDS011;16776;50.958;10.994;2022-11-21T06:31:54;2.78;;;1.90;;
29906;SDS011;16776;50.958;10.994;2022-11-21T06:34:21;2.63;;;1.98;;
29906;SDS011;16776;50.958;10.994;2022-11-21T06:36:47;2.53;;;1.77;;
29906;SDS011;16776;50.958;10.994;2022-11-21T06:39:14;2.85;;;2.20;;
29906;SDS011;16776;50.958;10.994;2022-11-21T06:41:42;2.47;;;1.80;;
29906;SDS011;16776;50.958;10.994;2022-11-21T06:44:14;2.78;;;1.75;;
29906;SDS011;16776;50.958;10.994;2022-11-21T06:46:41;3.20;;;2.30;;
29906;SDS011;16776;50.958;10.994;2022-11-21T06:49:08;2.60;;;1.80;;
29906;SDS011;16776;50.958;10.994;2022-11-21T06:51:34;3.22;;;1.90;;
29906;SDS011;16776;50.958;10.994;2022-11-21T06:54:01;2.97;;;1.92;;
29906;SDS011;16776;50.958;10.994;2022-11-21T06:56:29;2.85;;;1.80;;
29906;SDS011;16776;50.958;10.994;2022-11-21T06:58:57;2.20;;;1.70;;
29906;SDS011;16776;50.958;10.994;2022-11-21T07:01:24;3.30;;;1.90;;
29906;SDS011;16776;50.958;10.994;2022-11-21T07:03:51;3.17;;;2.00;;
29906;SDS011;16776;50.958;10.994;2022-11-21T07:06:18;2.70;;;1.85;;
29906;SDS011;16776;50.958;10.994;2022-11-21T07:08:44;2.45;;;1.90;;
29906;SDS011;16776;50.958;10.994;2022-11-21T07:11:12;2.58;;;1.80;;
29906;SDS011;16776;50.958;10.994;2022-11-21T07:13:41;2.17;;;1.77;;
29906;SDS011;16776;50.958;10.994;2022-11-21T07:16:08;2.30;;;2.10;;
29906;SDS011;16776;50.958;10.994;2022-11-21T07:18:38;2.67;;;2.03;;
29906;SDS011;16776;50.958;10.994;2022-11-21T07:21:05;2.70;;;1.95;;
29906;SDS011;16776;50.958;10.994;2022-11-21T07:23:33;3.20;;;2.35;;
29906;SDS011;16776;50.958;10.994;2022-11-21T07:26:00;3.08;;;1.92;;
29906;SDS011;16776;50.958;10.994;2022-11-21T07:28:28;4.07;;;2.70;;
29906;SDS011;16776;50.958;10.994;2022-11-21T07:30:55;4.20;;;2.75;;
29906;SDS011;16776;50.958;10.994;2022-11-21T07:33:23;3.88;;;2.17;;
29906;SDS011;16776;50.958;10.994;2022-11-21T07:35:50;4.30;;;2.95;;
29906;SDS011;16776;50.958;10.994;2022-11-21T07:38:16;4.20;;;3.10;;
29906;SDS011;16776;50.958;10.994;2022-11-21T07:40:43;5.10;;;3.85;;
29906;SDS011;16776;50.958;10.994;2022-11-21T07:43:10;6.20;;;3.95;;
29906;SDS011;16776;50.958;10.994;2022-11-21T07:45:37;4.78;;;3.58;;
29906;SDS011;16776;50.958;10.994;2022-11-21T07:48:04;5.38;;;3.75;;
29906;SDS011;16776;50.958;10.994;2022-11-21T07:50:33;5.47;;;3.70;;
29906;SDS011;16776;50.958;10.994;2022-11-21T07:53:00;5.60;;;3.90;;
29906;SDS011;16776;50.958;10.994;2022-11-21T07:55:28;5.53;;;3.65;;
29906;SDS011;16776;50.958;10.994;2022-11-21T07:57:56;5.63;;;3.58;;
29906;SDS011;16776;50.958;10.994;2022-11-21T08:00:23;5.00;;;3.55;;
29906;SDS011;16776;50.958;10.994;2022-11-21T08:02:50;4.82;;;2.63;;
29906;SDS011;16776;50.958;10.994;2022-11-21T08:05:17;3.47;;;2.55;;
29906;SDS011;16776;50.958;10.994;2022-11-21T08:07:45;3.05;;;2.13;;
29906;SDS011;16776;50.958;10.994;2022-11-21T08:10:12;2.95;;;2.35;;
29906;SDS011;16776;50.958;10.994;2022-11-21T08:12:39;2.75;;;2.10;;
29906;SDS011;16776;50.958;10.994;2022-11-21T08:15:06;2.85;;;1.90;;
29906;SDS011;16776;50.958;10.994;2022-11-21T08:17:33;2.88;;;2.40;;
29906;SDS011;16776;50.958;10.994;2022-11-21T08:20:00;3.35;;;2.08;;
29906;SDS011;16776;50.958;10.994;2022-11-21T08:22:26;2.00;;;1.73;;
29906;SDS011;16776;50.958;10.994;2022-11-21T08:24:54;3.00;;;1.88;;
29906;SDS011;16776;50.958;10.994;2022-11-21T08:27:21;2.17;;;1.50;;
29906;SDS011;16776;50.958;10.994;2022-11-21T08:29:48;2.45;;;1.70;;
29906;SDS011;16776;50.958;10.994;2022-11-21T08:32:15;2.17;;;1.75;;
29906;SDS011;16776;50.958;10.994;2022-11-21T08:34:42;2.90;;;1.90;;
29906;SDS011;16776;50.958;10.994;2022-11-21T08:37:08;2.33;;;1.48;;
29906;SDS011;16776;50.958;10.994;2022-11-21T08:39:35;2.35;;;1.90;;
29906;SDS011;16776;50.958;10.994;2022-11-21T08:42:03;2.65;;;1.83;;
29906;SDS011;16776;50.958;10.994;2022-11-21T08:44:30;2.78;;;2.30;;
29906;SDS011;16776;50.958;10.994;2022-11-21T08:46:58;3.67;;;2.67;;
29906;SDS011;16776;50.958;10.994;2022-11-21T08:49:25;3.78;;;2.40;;
29906;SDS011;16776;50.958;10.994;2022-11-21T08:51:52;3.45;;;2.35;;
29906;SDS011;16776;50.958;10.994;2022-11-21T08:54:20;2.78;;;2.00;;
29906;SDS011;16776;50.958;10.994;2022-11-21T08:56:48;2.78;;;2.10;;
29906;SDS011;16776;50.958;10.994;2022-11-21T08:59:16;2.40;;;1.77;;
29906;SDS011;16776;50.958;10.994;2022-11-21T09:01:43;3.45;;;2.30;;
29906;SDS011;16776;50.958;10.994;2022-11-21T09:04:10;2.58;;;1.92;;
29906;SDS011;16776;50.958;10.994;2022-11-21T09:06:36;3.55;;;2.20;;
29906;SDS011;16776;50.958;10.994;2022-11-21T09:09:04;2.75;;;1.80;;
29906;SDS011;16776;50.958;10.994;2022-11-21T09:11:31;2.90;;;1.92;;
29906;SDS011;16776;50.958;10.994;2022-11-21T09:13:58;2.60;;;1.80;;
29906;SDS011;16776;50.958;10.994;2022-11-21T09:16:43;2.63;;;1.73;;
29906;SDS011;16776;50.958;10.994;2022-11-21T09:19:27;2.80;;;2.25;;
29906;SDS011;16776;50.958;10.994;2022-11-21T09:21:54;4.32;;;1.98;;
29906;SDS011;16776;50.958;10.994;2022-11-21T09:24:21;2.58;;;1.98;;
29906;SDS011;16776;50.958;10.994;2022-11-21T09:26:47;2.92;;;2.20;;
29906;SDS011;16776;50.958;10.994;2022-11-21T09:29:14;3.20;;;2.10;;
29906;SDS011;16776;50.958;10.994;2022-11-21T09:31:40;4.78;;;2.55;;
29906;SDS011;16776;50.958;10.994;2022-11-21T09:34:08;4.03;;;2.50;;
29906;SDS011;16776;50.958;10.994;2022-11-21T09:36:35;2.70;;;1.73;;
29906;SDS011;16776;50.958;10.994;2022-11-21T09:39:02;3.15;;;2.58;;
29906;SDS011;16776;50.958;10.994;2022-11-21T09:41:31;3.30;;;2.00;;
29906;SDS011;16776;50.958;10.994;2022-11-21T09:44:24;3.08;;;2.30;;
29906;SDS011;16776;50.958;10.994;2022-11-21T09:47:23;3.33;;;2.25;;
29906;SDS011;16776;50.958;10.994;2022-11-21T09:49:54;3.53;;;2.00;;
29906;SDS011;16776;50.958;10.994;2022-11-21T09:52:25;2.78;;;1.55;;
29906;SDS011;16776;50.958;10.994;2022-11-21T09:54:58;2.67;;;2.00;;
29906;SDS011;16776;50.958;10.994;2022-11-21T09:57:28;2.10;;;1.67;;
29906;SDS011;16776;50.958;10.994;2022-11-21T09:59:56;2.47;;;1.75;;
29906;SDS011;16776;50.958;10.994;2022-11-21T10:02:23;2.33;;;1.70;;
29906;SDS011;16776;50.958;10.994;2022-11-21T10:04:50;2.28;;;2.08;;
29906;SDS011;16776;50.958;10.994;2022-11-21T10:07:21;2.85;;;2.28;;
29906;SDS011;16776;50.958;10.994;2022-11-21T10:09:59;1.95;;;1.77;;
29906;SDS011;16776;50.958;10.994;2022-11-21T10:12:36;3.20;;;1.90;;
29906;SDS011;16776;50.958;10.994;2022-11-21T10:15:20;3.22;;;2.10;;
29906;SDS011;16776;50.958;10.994;2022-11-21T10:18:07;2.85;;;2.13;;
29906;SDS011;16776;50.958;10.994;2022-11-21T10:20:53;2.55;;;2.08;;
29906;SDS011;16776;50.958;10.994;2022-11-21T10:23:30;3.50;;;2.20;;
29906;SDS011;16776;50.958;10.994;2022-11-21T10:26:08;2.55;;;1.90;;
29906;SDS011;16776;50.958;10.994;2022-11-21T10:28:42;2.30;;;1.70;;
29906;SDS011;16776;50.958;10.994;2022-11-21T10:31:13;3.65;;;2.20;;
29906;SDS011;16776;50.958;10.994;2022-11-21T10:33:41;2.53;;;1.90;;
29906;SDS011;16776;50.958;10.994;2022-11-21T10:36:11;2.88;;;1.88;;
29906;SDS011;16776;50.958;10.994;2022-11-21T10:38:49;3.13;;;2.00;;
29906;SDS011;16776;50.958;10.994;2022-11-21T10:41:22;2.70;;;1.80;;
29906;SDS011;16776;50.958;10.994;2022-11-21T10:44:03;2.97;;;2.08;;
29906;SDS011;16776;50.958;10.994;2022-11-21T10:46:54;2.53;;;1.95;;
29906;SDS011;16776;50.958;10.994;2022-11-21T10:49:21;3.70;;;2.08;;
29906;SDS011;16776;50.958;10.994;2022-11-21T10:51:50;3.30;;;1.92;;
29906;SDS011;16776;50.958;10.994;2022-11-21T10:54:23;2.22;;;1.75;;
29906;SDS011;16776;50.958;10.994;2022-11-21T10:57:00;3.40;;;1.85;;
29906;SDS011;16776;50.958;10.994;2022-11-21T10:59:32;2.55;;;2.03;;
29906;SDS011;16776;50.958;10.994;2022-11-21T11:01:59;2.67;;;1.70;;
29906;SDS011;16776;50.958;10.994;2022-11-21T11:04:27;2.17;;;1.70;;
29906;SDS011;16776;50.958;10.994;2022-11-21T11:06:55;2.03;;;1.65;;
29906;SDS011;16776;50.958;10.994;2022-11-21T11:09:25;3.97;;;2.28;;
29906;SDS011;16776;50.958;10.994;2022-11-21T11:15:16;4.20;;;2.00;;
29906;SDS011;16776;50.958;10.994;2022-11-21T11:17:48;2.97;;;2.08;;
29906;SDS011;16776;50.958;10.994;2022-11-21T11:20:27;2.83;;;2.22;;
29906;SDS011;16776;50.958;10.994;2022-11-21T11:22:56;4.57;;;2.33;;
29906;SDS011;16776;50.958;10.994;2022-11-21T11:25:24;3.35;;;2.33;;
29906;SDS011;16776;50.958;10.994;2022-11-21T11:27:51;3.75;;;2.42;;
29906;SDS011;16776;50.958;10.994;2022-11-21T11:30:18;3.63;;;2.15;;
29906;SDS011;16776;50.958;10.994;2022-11-21T11:32:45;4.60;;;2.90;;
29906;SDS011;16776;50.958;10.994;2022-11-21T11:35:20;3.55;;;2.65;;
29906;SDS011;16776;50.958;10.994;2022-11-21T11:37:51;3.25;;;2.72;;
29906;SDS011;16776;50.958;10.994;2022-11-21T11:40:27;3.58;;;2.25;;
29906;SDS011;16776;50.958;10.994;2022-11-21T11:46:28;3.50;;;2.45;;
29906;SDS011;16776;50.958;10.994;2022-11-21T11:49:21;3.93;;;2.70;;
29906;SDS011;16776;50.958;10.994;2022-11-21T11:51:56;4.55;;;3.28;;
29906;SDS011;16776;50.958;10.994;2022-11-21T11:54:30;4.78;;;3.25;;
29906;SDS011;16776;50.958;10.994;2022-11-21T11:57:01;4.90;;;3.42;;
29906;SDS011;16776;50.958;10.994;2022-11-21T11:59:30;3.80;;;2.78;;
29906;SDS011;16776;50.958;10.994;2022-11-21T12:02:02;4.38;;;2.90;;
29906;SDS011;16776;50.958;10.994;2022-11-21T12:04:36;4.22;;;3.50;;
29906;SDS011;16776;50.958;10.994;2022-11-21T12:07:11;5.72;;;3.30;;
29906;SDS011;16776;50.958;10.994;2022-11-21T12:09:46;4.53;;;3.08;;
29906;SDS011;16776;50.958;10.994;2022-11-21T12:12:26;4.85;;;2.90;;
29906;SDS011;16776;50.958;10.994;2022-11-21T12:15:01;5.18;;;3.20;;
29906;SDS011;16776;50.958;10.994;2022-11-21T12:17:58;3.88;;;2.67;;
29906;SDS011;16776;50.958;10.994;2022-11-21T12:20:39;3.85;;;2.95;;
29906;SDS011;16776;50.958;10.994;2022-11-21T12:23:13;4.03;;;3.05;;
29906;SDS011;16776;50.958;10.994;2022-11-21T12:25:42;4.30;;;2.95;;
29906;SDS011;16776;50.958;10.994;2022-11-21T12:28:17;6.07;;;3.03;;
29906;SDS011;16776;50.958;10.994;2022-11-21T12:30:53;5.88;;;3.40;;
29906;SDS011;16776;50.958;10.994;2022-11-21T12:33:27;3.17;;;2.60;;
29906;SDS011;16776;50.958;10.994;2022-11-21T12:41:54;3.28;;;2.72;;
29906;SDS011;16776;50.958;10.994;2022-11-21T12:44:48;4.63;;;2.78;;
29906;SDS011;16776;50.958;10.994;2022-11-21T12:47:30;3.13;;;2.50;;
29906;SDS011;16776;50.958;10.994;2022-11-21T12:50:33;3.83;;;2.90;;
29906;SDS011;16776;50.958;10.994;2022-11-21T12:53:31;3.97;;;2.85;;
29906;SDS011;16776;50.958;10.994;2022-11-21T12:56:24;3.80;;;2.50;;
29906;SDS011;16776;50.958;10.994;2022-11-21T12:58:57;4.82;;;2.97;;
29906;SDS011;16776;50.958;10.994;2022-11-21T13:01:31;5.05;;;3.47;;
29906;SDS011;16776;50.958;10.994;2022-11-21T13:04:04;3.67;;;2.38;;
29906;SDS011;16776;50.958;10.994;2022-11-21T13:06:37;4.28;;;3.28;;
29906;SDS011;16776;50.958;10.994;2022-11-21T13:09:08;5.85;;;3.42;;
29906;SDS011;16776;50.958;10.994;2022-11-21T13:11:41;4.97;;;3.22;;
29906;SDS011;16776;50.958;10.994;2022-11-21T13:14:25;2.60;;;2.22;;
29906;SDS011;16776;50.958;10.994;2022-11-21T13:17:00;3.55;;;2.58;;
29906;SDS011;16776;50.958;10.994;2022-11-21T13:19:34;3.65;;;2.97;;
29906;SDS011;16776;50.958;10.994;2022-11-21T13:22:09;4.22;;;2.58;;
29906;SDS011;16776;50.958;10.994;2022-11-21T13:25:35;2.78;;;2.53;;
29906;SDS011;16776;50.958;10.994;2022-11-21T13:31:01;3.90;;;2.63;;
29906;SDS011;16776;50.958;10.994;2022-11-21T13:33:51;4.70;;;2.95;;
29906;SDS011;16776;50.958;10.994;2022-11-21T13:36:40;3.25;;;2.60;;
29906;SDS011;16776;50.958;10.994;2022-11-21T13:42:04;4.72;;;3.13;;
29906;SDS011;16776;50.958;10.994;2022-11-21T13:44:49;3.45;;;2.40;;
29906;SDS011;16776;50.958;10.994;2022-11-21T13:50:14;4.03;;;2.65;;
29906;SDS011;16776;50.958;10.994;2022-11-21T13:52:48;4.90;;;2.97;;
29906;SDS011;16776;50.958;10.994;2022-11-21T13:55:34;5.13;;;3.13;;
29906;SDS011;16776;50.958;10.994;2022-11-21T13:58:13;5.38;;;3.40;;
29906;SDS011;16776;50.958;10.994;2022-11-21T14:01:01;3.83;;;2.85;;
29906;SDS011;16776;50.958;10.994;2022-11-21T14:03:56;4.47;;;2.97;;
29906;SDS011;16776;50.958;10.994;2022-11-21T14:06:37;3.40;;;2.75;;
29906;SDS011;16776;50.958;10.994;2022-11-21T14:09:15;3.67;;;2.67;;
29906;SDS011;16776;50.958;10.994;2022-11-21T14:11:47;6.03;;;3.25;;
29906;SDS011;16776;50.958;10.994;2022-11-21T14:17:12;4.72;;;2.35;;
29906;SDS011;16776;50.958;10.994;2022-11-21T14:19:54;4.95;;;2.95;;
29906;SDS011;16776;50.958;10.994;2022-11-21T14:22:26;2.92;;;2.45;;
29906;SDS011;16776;50.958;10.994;2022-11-21T14:24:57;5.60;;;2.85;;
29906;SDS011;16776;50.958;10.994;2022-11-21T14:27:27;3.60;;;2.67;;
29906;SDS011;16776;50.958;10.994;2022-11-21T14:29:57;3.67;;;2.80;;
29906;SDS011;16776;50.958;10.994;2022-11-21T14:32:27;3.75;;;2.85;;
29906;SDS011;16776;50.958;10.994;2022-11-21T14:35:07;3.50;;;2.55;;
29906;SDS011;16776;50.958;10.994;2022-11-21T14:37:38;4.40;;;2.83;;
29906;SDS011;16776;50.958;10.994;2022-11-21T14:40:09;3.03;;;2.50;;
29906;SDS011;16776;50.958;10.994;2022-11-21T14:42:39;4.65;;;2.67;;
29906;SDS011;16776;50.958;10.994;2022-11-21T14:45:07;3.92;;;2.28;;
29906;SDS011;16776;50.958;10.994;2022-11-21T14:47:44;4.35;;;2.42;;
29906;SDS011;16776;50.958;10.994;2022-11-21T14:50:19;3.63;;;2.73;;
29906;SDS011;16776;50.958;10.994;2022-11-21T14:52:48;3.95;;;2.45;;
29906;SDS011;16776;50.958;10.994;2022-11-21T14:57:50;13.65;;;7.80;;
29906;SDS011;16776;50.958;10.994;2022-11-21T15:00:19;37.13;;;19.52;;
29906;SDS011;16776;50.958;10.994;2022-11-21T15:02:49;36.15;;;24.33;;
29906;SDS011;16776;50.958;10.994;2022-11-21T15:05:18;19.20;;;13.02;;
29906;SDS011;16776;50.958;10.994;2022-11-21T15:07:47;12.57;;;8.80;;
29906;SDS011;16776;50.958;10.994;2022-11-21T15:10:15;9.05;;;5.90;;
29906;SDS011;16776;50.958;10.994;2022-11-21T15:12:45;5.20;;;3.88;;
29906;SDS011;16776;50.958;10.994;2022-11-21T15:15:23;5.03;;;3.72;;
29906;SDS011;16776;50.958;10.994;2022-11-21T15:17:54;5.10;;;3.30;;
29906;SDS011;16776;50.958;10.994;2022-11-21T15:20:22;4.28;;;2.90;;
29906;SDS011;16776;50.958;10.994;2022-11-21T15:22:52;4.57;;;2.97;;
29906;SDS011;16776;50.958;10.994;2022-11-21T15:25:21;4.97;;;3.08;;